Time;durP1;ratioP1;P1;durP2;ratioP2;P2;SDS_P1;SDS_P2;PMS_P1;PMS_P2;Temp;Humidity;BMP_temperature;BMP_pressure;BME280_temperature;BME280_humidity;BME280_pressure;Samples;Min_cycle;Max_cycle;Signal;HPM_P1;HPM_P2
2022/11/28 00:01:41;;;;;;;27.67;11.30;;;;;;;;;;5045043;28;20036;-67
2022/11/28 00:04:07;;;;;;;29.63;12.38;;;;;;;;;;5047309;28;20029;-67
2022/11/28 00:06:34;;;;;;;20.35;10.63;;;;;;;;;;5046697;28;20035;-68
2022/11/28 00:09:00;;;;;;;37.30;12.07;;;;;;;;;;5046359;28;20021;-67
2022/11/28 00:11:25;;;;;;;25.55;10.88;;;;;;;;;;5048990;28;20020;-68
2022/11/28 00:13:50;;;;;;;23.88;11.27;;;;;;;;;;5049035;28;20025;-67
2022/11/28 00:16:17;;;;;;;24.77;10.68;;;;;;;;;;5062501;28;20096;-70
2022/11/28 00:18:42;;;;;;;23.92;10.52;;;;;;;;;;5049273;28;20442;-67
2022/11/28 00:21:09;;;;;;;29.95;10.88;;;;;;;;;;5049291;28;20044;-65
2022/11/28 00:23:34;;;;;;;24.23;10.68;;;;;;;;;;5061830;28;20032;-69
2022/11/28 00:26:01;;;;;;;20.85;10.13;;;;;;;;;;5046522;28;20364;-69
2022/11/28 00:28:26;;;;;;;22.77;10.98;;;;;;;;;;5056363;28;20025;-69
2022/11/28 00:30:51;;;;;;;29.38;11.02;;;;;;;;;;5048540;28;20431;-69
2022/11/28 00:33:16;;;;;;;19.02;10.25;;;;;;;;;;5048590;28;20029;-68
2022/11/28 00:35:41;;;;;;;22.08;10.88;;;;;;;;;;5048647;28;20029;-68
2022/11/28 00:38:07;;;;;;;28.02;10.73;;;;;;;;;;5048556;28;20052;-67
2022/11/28 00:40:32;;;;;;;21.67;10.90;;;;;;;;;;5048569;28;20021;-67
2022/11/28 00:42:57;;;;;;;26.63;10.75;;;;;;;;;;5049076;28;20051;-64
2022/11/28 00:45:22;;;;;;;29.10;9.80;;;;;;;;;;5054153;28;20508;-67
2022/11/28 00:47:48;;;;;;;21.98;10.55;;;;;;;;;;5046353;28;20099;-67
2022/11/28 00:50:13;;;;;;;23.77;10.50;;;;;;;;;;5060984;28;20017;-67
2022/11/28 00:52:38;;;;;;;22.60;10.73;;;;;;;;;;5054453;28;20020;-68
2022/11/28 00:55:04;;;;;;;24.13;11.30;;;;;;;;;;5056231;28;20046;-66
2022/11/28 00:57:29;;;;;;;17.60;9.27;;;;;;;;;;5048241;28;20037;-67
2022/11/28 00:59:54;;;;;;;22.23;10.48;;;;;;;;;;5047021;28;20021;-68
2022/11/28 01:02:20;;;;;;;26.55;10.38;;;;;;;;;;5049389;28;20029;-66
2022/11/28 01:04:45;;;;;;;23.73;11.02;;;;;;;;;;5042106;28;20039;-67
2022/11/28 01:07:10;;;;;;;23.02;10.48;;;;;;;;;;5047238;28;20021;-66
2022/11/28 01:09:35;;;;;;;22.65;11.05;;;;;;;;;;5047880;28;20017;-66
2022/11/28 01:12:00;;;;;;;21.95;10.65;;;;;;;;;;5046690;28;20013;-67
2022/11/28 01:14:26;;;;;;;19.58;9.88;;;;;;;;;;5058484;28;20055;-65
2022/11/28 01:16:51;;;;;;;22.10;10.90;;;;;;;;;;5054427;28;20020;-67
2022/11/28 01:19:17;;;;;;;20.33;10.75;;;;;;;;;;5047518;28;20641;-68
2022/11/28 01:21:42;;;;;;;22.70;11.25;;;;;;;;;;5047732;28;20025;-67
2022/11/28 01:24:07;;;;;;;23.58;11.25;;;;;;;;;;5047294;28;20048;-68
2022/11/28 01:26:32;;;;;;;21.83;11.18;;;;;;;;;;5047472;28;20033;-65
2022/11/28 01:28:58;;;;;;;23.48;11.27;;;;;;;;;;5058147;28;20027;-67
2022/11/28 01:31:25;;;;;;;24.08;10.13;;;;;;;;;;5054604;28;20099;-69
2022/11/28 01:33:50;;;;;;;25.75;11.93;;;;;;;;;;5056021;28;20478;-69
2022/11/28 01:36:15;;;;;;;21.08;10.15;;;;;;;;;;5047562;28;20043;-67
2022/11/28 01:38:40;;;;;;;23.08;9.70;;;;;;;;;;5047633;28;20571;-69
2022/11/28 01:41:07;;;;;;;26.38;11.68;;;;;;;;;;5047567;28;20108;-68
2022/11/28 01:43:32;;;;;;;25.58;10.68;;;;;;;;;;5047744;28;20036;-69
2022/11/28 01:45:57;;;;;;;20.05;10.82;;;;;;;;;;5049658;28;20018;-67
2022/11/28 01:48:33;;;;;;;24.90;10.23;;;;;;;;;;5046850;28;20028;-68
2022/11/28 01:51:00;;;;;;;22.20;10.48;;;;;;;;;;5047122;28;20347;-65
2022/11/28 01:53:28;;;;;;;22.73;10.55;;;;;;;;;;5059233;28;20026;-64
2022/11/28 01:56:05;;;;;;;21.67;10.32;;;;;;;;;;5048658;28;20017;-69
2022/11/28 01:58:32;;;;;;;22.13;10.68;;;;;;;;;;5060919;28;20074;-65
2022/11/28 02:00:57;;;;;;;25.02;10.15;;;;;;;;;;5054401;28;20513;-64
2022/11/28 02:03:32;;;;;;;24.98;10.65;;;;;;;;;;5053196;28;20048;-65
2022/11/28 02:05:57;;;;;;;23.75;9.90;;;;;;;;;;5046890;28;20021;-68
2022/11/28 02:08:24;;;;;;;22.05;10.43;;;;;;;;;;5048279;28;20067;-68
2022/11/28 02:10:49;;;;;;;21.48;10.27;;;;;;;;;;5059570;28;20021;-69
2022/11/28 02:13:17;;;;;;;20.85;10.00;;;;;;;;;;5047260;28;20020;-68
2022/11/28 02:15:48;;;;;;;23.50;10.57;;;;;;;;;;5056085;28;20017;-67
2022/11/28 02:18:27;;;;;;;24.80;10.18;;;;;;;;;;5066836;28;20426;-67
2022/11/28 02:21:05;;;;;;;20.63;9.40;;;;;;;;;;5056026;28;20078;-68
2022/11/28 02:23:30;;;;;;;19.77;9.07;;;;;;;;;;5046800;28;20454;-69
2022/11/28 02:26:14;;;;;;;20.08;9.90;;;;;;;;;;5046342;28;20061;-67
2022/11/28 02:28:53;;;;;;;22.13;9.75;;;;;;;;;;5046132;28;20027;-68
2022/11/28 02:31:37;;;;;;;20.42;10.57;;;;;;;;;;5047328;28;20049;-66
2022/11/28 02:34:07;;;;;;;18.70;8.75;;;;;;;;;;5050402;28;20062;-68
2022/11/28 02:36:35;;;;;;;19.80;9.50;;;;;;;;;;5049797;28;20033;-67
2022/11/28 02:39:13;;;;;;;21.30;10.35;;;;;;;;;;5050716;28;20028;-68
2022/11/28 02:41:43;;;;;;;19.92;9.27;;;;;;;;;;5045210;28;20021;-68
2022/11/28 02:44:37;;;;;;;22.35;9.73;;;;;;;;;;5055007;28;20021;-68
2022/11/28 02:47:03;;;;;;;24.08;7.78;;;;;;;;;;5029805;28;20041;-69
2022/11/28 02:49:28;;;;;;;18.70;8.52;;;;;;;;;;5056615;28;20138;-66
2022/11/28 02:51:56;;;;;;;17.55;8.82;;;;;;;;;;5057830;28;20067;-68
2022/11/28 02:54:22;;;;;;;20.25;8.93;;;;;;;;;;5049266;28;20598;-67
2022/11/28 02:56:51;;;;;;;18.05;8.23;;;;;;;;;;5063759;28;20020;-67
2022/11/28 02:59:26;;;;;;;20.15;8.68;;;;;;;;;;5044865;28;20020;-65
2022/11/28 03:01:52;;;;;;;21.38;9.63;;;;;;;;;;5056740;28;20021;-68
2022/11/28 03:04:17;;;;;;;18.55;8.85;;;;;;;;;;5053432;28;20103;-65
2022/11/28 03:06:48;;;;;;;22.95;8.30;;;;;;;;;;5052777;28;20092;-67
2022/11/28 03:09:19;;;;;;;16.02;8.52;;;;;;;;;;5049730;28;20043;-68
2022/11/28 03:12:14;;;;;;;18.58;8.50;;;;;;;;;;5063720;28;20017;-67
2022/11/28 03:14:42;;;;;;;14.05;7.20;;;;;;;;;;5045379;28;20027;-66
2022/11/28 03:17:26;;;;;;;16.20;7.72;;;;;;;;;;5035255;28;20039;-66
2022/11/28 03:19:51;;;;;;;14.63;7.32;;;;;;;;;;5063091;28;20029;-68
2022/11/28 03:22:22;;;;;;;12.52;6.90;;;;;;;;;;5050163;28;20021;-68
2022/11/28 03:24:51;;;;;;;16.98;7.22;;;;;;;;;;5049589;28;20107;-67
2022/11/28 03:27:25;;;;;;;17.90;8.15;;;;;;;;;;5049517;28;20045;-69
2022/11/28 03:29:54;;;;;;;18.17;7.55;;;;;;;;;;5049923;28;20017;-67
2022/11/28 03:32:31;;;;;;;15.55;7.68;;;;;;;;;;5049855;28;20024;-67
2022/11/28 03:35:03;;;;;;;17.17;7.35;;;;;;;;;;5062696;28;20028;-68
2022/11/28 03:37:31;;;;;;;18.30;6.82;;;;;;;;;;5060201;28;20028;-66
2022/11/28 03:39:58;;;;;;;17.48;7.38;;;;;;;;;;5049366;28;20024;-68
2022/11/28 03:42:25;;;;;;;20.05;6.97;;;;;;;;;;5062692;28;20107;-68
2022/11/28 03:44:57;;;;;;;17.70;6.32;;;;;;;;;;5054360;28;20104;-66
2022/11/28 03:47:25;;;;;;;15.40;6.90;;;;;;;;;;5047023;28;20175;-68
2022/11/28 03:49:53;;;;;;;15.18;6.65;;;;;;;;;;5049069;28;20075;-66
2022/11/28 03:52:29;;;;;;;21.27;7.47;;;;;;;;;;5055408;28;20032;-68
2022/11/28 03:54:58;;;;;;;19.00;7.03;;;;;;;;;;5057888;28;20017;-66
2022/11/28 03:57:52;;;;;;;17.03;7.27;;;;;;;;;;5048803;28;20048;-65
2022/11/28 04:00:17;;;;;;;15.15;6.18;;;;;;;;;;5037241;28;20029;-66
2022/11/28 04:03:01;;;;;;;13.45;6.40;;;;;;;;;;5060613;28;20566;-66
2022/11/28 04:05:40;;;;;;;18.30;6.97;;;;;;;;;;5053026;28;20433;-67
2022/11/28 04:08:26;;;;;;;15.55;7.15;;;;;;;;;;5056432;28;20059;-68
2022/11/28 04:10:54;;;;;;;14.02;5.78;;;;;;;;;;5036919;28;20029;-66
2022/11/28 04:13:30;;;;;;;18.48;8.18;;;;;;;;;;5062292;28;20021;-68
2022/11/28 04:16:02;;;;;;;15.35;6.80;;;;;;;;;;5049058;28;20398;-67
2022/11/28 04:18:31;;;;;;;14.65;6.53;;;;;;;;;;5051744;28;20029;-67
2022/11/28 04:21:02;;;;;;;13.55;6.32;;;;;;;;;;5058643;28;20043;-65
2022/11/28 04:23:28;;;;;;;12.70;6.55;;;;;;;;;;5048502;28;20033;-68
2022/11/28 04:25:59;;;;;;;16.38;6.57;;;;;;;;;;5049408;28;20371;-68
2022/11/28 04:28:26;;;;;;;17.08;7.13;;;;;;;;;;5052867;28;20139;-66
2022/11/28 04:30:52;;;;;;;12.73;5.82;;;;;;;;;;5049110;28;20040;-69
2022/11/28 04:33:19;;;;;;;13.95;6.07;;;;;;;;;;5048525;28;20013;-65
2022/11/28 04:35:49;;;;;;;16.95;6.30;;;;;;;;;;5061039;28;20017;-68
2022/11/28 04:38:14;;;;;;;11.40;5.03;;;;;;;;;;5048711;28;20021;-68
2022/11/28 04:40:58;;;;;;;12.85;5.50;;;;;;;;;;5048858;28;20021;-67
2022/11/28 04:43:26;;;;;;;15.35;6.00;;;;;;;;;;5056592;28;20028;-66
2022/11/28 04:45:54;;;;;;;18.87;6.07;;;;;;;;;;5053845;28;20014;-66
2022/11/28 04:48:19;;;;;;;13.57;6.00;;;;;;;;;;5046832;28;20025;-67
2022/11/28 04:50:51;;;;;;;16.52;6.32;;;;;;;;;;5048030;28;20067;-67
2022/11/28 04:53:24;;;;;;;11.57;5.32;;;;;;;;;;5047253;28;20032;-70
2022/11/28 04:55:55;;;;;;;18.48;6.57;;;;;;;;;;5048407;28;20017;-67
2022/11/28 04:58:24;;;;;;;21.77;6.80;;;;;;;;;;5049143;28;20100;-69
2022/11/28 05:00:50;;;;;;;;;;;;;;;;;;5054662;28;20458;-67
2022/11/28 05:03:15;;;;;;;13.25;5.20;;;;;;;;;;5054355;28;20404;-70
2022/11/28 05:05:45;;;;;;;15.73;5.35;;;;;;;;;;5059005;28;20079;-69
2022/11/28 05:08:10;;;;;;;13.63;5.15;;;;;;;;;;5048051;28;20035;-67
2022/11/28 05:10:36;;;;;;;11.20;5.57;;;;;;;;;;5048667;28;20077;-68
2022/11/28 05:13:01;;;;;;;9.05;4.88;;;;;;;;;;5047875;28;20104;-69
2022/11/28 05:15:27;;;;;;;13.15;5.32;;;;;;;;;;5047681;28;20048;-67
2022/11/28 05:17:52;;;;;;;11.93;5.03;;;;;;;;;;5057115;28;20028;-69
2022/11/28 05:20:17;;;;;;;11.80;5.20;;;;;;;;;;5054974;28;20056;-67
2022/11/28 05:22:42;;;;;;;14.65;5.30;;;;;;;;;;5058839;28;20508;-67
2022/11/28 05:25:08;;;;;;;13.77;5.35;;;;;;;;;;5061153;28;20397;-70
2022/11/28 05:27:33;;;;;;;11.05;5.15;;;;;;;;;;5047297;28;20156;-66
2022/11/28 05:29:58;;;;;;;9.57;4.32;;;;;;;;;;5047447;28;20067;-66
2022/11/28 05:32:23;;;;;;;9.27;4.95;;;;;;;;;;5045228;28;20025;-67
2022/11/28 05:34:48;;;;;;;11.13;4.35;;;;;;;;;;5053961;28;20025;-66
2022/11/28 05:37:14;;;;;;;11.30;4.93;;;;;;;;;;5049069;28;20026;-67
2022/11/28 05:39:39;;;;;;;13.02;4.97;;;;;;;;;;5050045;28;20029;-68
2022/11/28 05:42:05;;;;;;;8.82;3.92;;;;;;;;;;5047958;28;20028;-67
2022/11/28 05:44:30;;;;;;;10.70;5.13;;;;;;;;;;5048221;28;20501;-67
2022/11/28 05:46:55;;;;;;;12.77;5.45;;;;;;;;;;5038789;28;20107;-65
2022/11/28 05:49:20;;;;;;;19.65;6.00;;;;;;;;;;5044905;28;20075;-67
2022/11/28 05:51:47;;;;;;;10.48;5.50;;;;;;;;;;5048629;28;20013;-71
2022/11/28 05:54:12;;;;;;;12.68;6.38;;;;;;;;;;5045924;28;20031;-65
2022/11/28 05:56:37;;;;;;;13.60;5.85;;;;;;;;;;5045901;28;20103;-68
2022/11/28 05:59:02;;;;;;;12.95;6.15;;;;;;;;;;5052136;28;20055;-68
2022/11/28 06:01:28;;;;;;;11.13;5.45;;;;;;;;;;5057476;28;20037;-68
2022/11/28 06:03:58;;;;;;;15.40;5.45;;;;;;;;;;5050027;28;20051;-68
2022/11/28 06:06:24;;;;;;;11.18;5.50;;;;;;;;;;5052129;28;20048;-68
2022/11/28 06:08:53;;;;;;;13.13;5.03;;;;;;;;;;5053429;28;20391;-68
2022/11/28 06:11:19;;;;;;;10.50;5.13;;;;;;;;;;5048772;28;20252;-66
2022/11/28 06:13:45;;;;;;;12.32;5.68;;;;;;;;;;5063003;28;20148;-66
2022/11/28 06:16:12;;;;;;;16.48;7.00;;;;;;;;;;5064120;28;20032;-68
2022/11/28 06:18:38;;;;;;;12.55;6.10;;;;;;;;;;5051088;28;20032;-67
2022/11/28 06:21:04;;;;;;;15.15;5.85;;;;;;;;;;5063743;28;20108;-67
2022/11/28 06:23:29;;;;;;;12.93;5.07;;;;;;;;;;5050759;28;20041;-68
2022/11/28 06:25:54;;;;;;;16.30;5.15;;;;;;;;;;5060449;28;20552;-67
2022/11/28 06:28:20;;;;;;;9.85;5.00;;;;;;;;;;5051410;28;20021;-68
2022/11/28 06:30:45;;;;;;;18.30;5.68;;;;;;;;;;5063942;28;20048;-64
2022/11/28 06:33:10;;;;;;;23.40;6.28;;;;;;;;;;5050410;28;20068;-65
2022/11/28 06:35:35;;;;;;;16.80;6.03;;;;;;;;;;5051813;28;20123;-68
2022/11/28 06:38:01;;;;;;;14.52;5.50;;;;;;;;;;5070200;28;20043;-67
2022/11/28 06:40:26;;;;;;;19.92;5.32;;;;;;;;;;5057337;28;20017;-69
2022/11/28 06:42:51;;;;;;;10.40;4.90;;;;;;;;;;5063157;28;20025;-67
2022/11/28 06:45:16;;;;;;;10.25;5.22;;;;;;;;;;5050608;28;20056;-67
2022/11/28 06:47:42;;;;;;;12.25;5.88;;;;;;;;;;5052408;28;20386;-67
2022/11/28 06:50:08;;;;;;;15.85;5.75;;;;;;;;;;5051599;28;20017;-68
2022/11/28 06:52:33;;;;;;;15.98;5.95;;;;;;;;;;5055623;28;20098;-68
2022/11/28 06:54:58;;;;;;;12.88;5.93;;;;;;;;;;5071768;28;20489;-68
2022/11/28 06:57:24;;;;;;;14.10;4.97;;;;;;;;;;5056547;28;20097;-67
2022/11/28 06:59:49;;;;;;;19.73;6.63;;;;;;;;;;5059480;28;20024;-66
2022/11/28 07:02:14;;;;;;;10.30;5.50;;;;;;;;;;5050272;28;20540;-68
2022/11/28 07:04:40;;;;;;;19.13;6.75;;;;;;;;;;5048914;28;20568;-67
2022/11/28 07:07:05;;;;;;;22.60;7.25;;;;;;;;;;5049996;28;20029;-68
2022/11/28 07:09:30;;;;;;;13.30;6.20;;;;;;;;;;5050042;28;20099;-66
2022/11/28 07:11:55;;;;;;;19.65;5.65;;;;;;;;;;5048843;28;20113;-67
2022/11/28 07:14:21;;;;;;;16.45;6.82;;;;;;;;;;5050233;28;20013;-69
2022/11/28 07:16:47;;;;;;;12.18;6.03;;;;;;;;;;5050002;28;20021;-66
2022/11/28 07:19:13;;;;;;;14.05;6.53;;;;;;;;;;5050168;28;20036;-66
2022/11/28 07:21:38;;;;;;;15.55;6.18;;;;;;;;;;5051555;28;20347;-68
2022/11/28 07:24:04;;;;;;;17.92;6.15;;;;;;;;;;5049541;28;20017;-69
2022/11/28 07:26:29;;;;;;;15.43;6.85;;;;;;;;;;5049289;28;20032;-67
2022/11/28 07:28:57;;;;;;;25.70;7.72;;;;;;;;;;5049467;28;20036;-67
2022/11/28 07:31:30;;;;;;;17.77;7.63;;;;;;;;;;5049534;28;20470;-69
2022/11/28 07:33:55;;;;;;;23.27;6.15;;;;;;;;;;5059900;28;20016;-68
2022/11/28 07:36:22;;;;;;;15.98;6.60;;;;;;;;;;5051409;28;20100;-66
2022/11/28 07:38:48;;;;;;;12.85;5.72;;;;;;;;;;5049770;28;20051;-68
2022/11/28 07:41:13;;;;;;;15.45;7.15;;;;;;;;;;5049437;28;20108;-65
2022/11/28 07:43:39;;;;;;;13.38;6.28;;;;;;;;;;5060519;28;20074;-67
2022/11/28 07:46:06;;;;;;;14.35;5.30;;;;;;;;;;5049932;28;20018;-67
2022/11/28 07:48:31;;;;;;;13.57;5.68;;;;;;;;;;5049401;28;20017;-67
2022/11/28 07:50:56;;;;;;;11.50;5.30;;;;;;;;;;5052803;28;20024;-67
2022/11/28 07:53:21;;;;;;;14.77;5.97;;;;;;;;;;5049334;28;20434;-67
2022/11/28 07:55:46;;;;;;;13.43;6.70;;;;;;;;;;5047783;28;20040;-67
2022/11/28 07:58:12;;;;;;;21.02;6.57;;;;;;;;;;5061255;28;20492;-64
2022/11/28 08:00:37;;;;;;;14.57;5.85;;;;;;;;;;5055669;28;20025;-66
2022/11/28 08:03:02;;;;;;;14.55;6.10;;;;;;;;;;5058086;28;20033;-69
2022/11/28 08:05:27;;;;;;;12.57;6.10;;;;;;;;;;5049365;28;20136;-68
2022/11/28 08:07:53;;;;;;;18.38;6.75;;;;;;;;;;5048650;28;20031;-66
2022/11/28 08:10:18;;;;;;;24.45;6.38;;;;;;;;;;5048919;28;20079;-65
2022/11/28 08:12:43;;;;;;;13.13;6.03;;;;;;;;;;5047104;28;20392;-68
2022/11/28 08:15:09;;;;;;;15.48;5.85;;;;;;;;;;5048730;28;20108;-65
2022/11/28 08:17:34;;;;;;;22.33;7.55;;;;;;;;;;5059449;28;20021;-68
2022/11/28 08:19:59;;;;;;;16.52;6.55;;;;;;;;;;5055410;28;20028;-67
2022/11/28 08:22:25;;;;;;;25.73;6.65;;;;;;;;;;5058179;28;20135;-66
2022/11/28 08:24:50;;;;;;;17.95;6.97;;;;;;;;;;5049125;28;20504;-67
2022/11/28 08:27:15;;;;;;;17.05;6.75;;;;;;;;;;5046516;28;20394;-69
2022/11/28 08:29:41;;;;;;;21.33;7.95;;;;;;;;;;5051496;28;20635;-68
2022/11/28 08:32:06;;;;;;;22.08;7.63;;;;;;;;;;5058776;28;20024;-68
2022/11/28 08:34:31;;;;;;;29.58;8.57;;;;;;;;;;5048797;28;20469;-67
2022/11/28 08:36:56;;;;;;;18.90;7.32;;;;;;;;;;5048719;28;20558;-68
2022/11/28 08:39:21;;;;;;;33.50;8.07;;;;;;;;;;5061994;28;20017;-67
2022/11/28 08:41:47;;;;;;;21.30;7.55;;;;;;;;;;5048237;28;20363;-65
2022/11/28 08:44:12;;;;;;;19.55;7.95;;;;;;;;;;5048151;28;20367;-67
2022/11/28 08:46:37;;;;;;;20.55;7.30;;;;;;;;;;5046411;28;20474;-66
2022/11/28 08:49:03;;;;;;;20.55;7.65;;;;;;;;;;5050335;28;20074;-68
2022/11/28 08:51:29;;;;;;;18.77;7.90;;;;;;;;;;5059398;28;20498;-67
2022/11/28 08:53:54;;;;;;;27.58;7.38;;;;;;;;;;5061036;28;20501;-66
2022/11/28 08:56:20;;;;;;;16.60;7.35;;;;;;;;;;5056497;28;20020;-68
2022/11/28 08:58:45;;;;;;;20.20;8.18;;;;;;;;;;5051614;28;20035;-70
2022/11/28 09:01:14;;;;;;;18.10;7.47;;;;;;;;;;5056971;28;20029;-69
2022/11/28 09:03:40;;;;;;;15.60;6.40;;;;;;;;;;5053948;28;20021;-67
2022/11/28 09:06:05;;;;;;;25.77;7.88;;;;;;;;;;5057197;28;20032;-68
2022/11/28 09:08:30;;;;;;;15.25;6.70;;;;;;;;;;5047500;28;20030;-67
2022/11/28 09:10:55;;;;;;;19.60;6.95;;;;;;;;;;5046985;28;20024;-66
2022/11/28 09:13:20;;;;;;;18.55;8.18;;;;;;;;;;5061906;28;20071;-65
2022/11/28 09:15:46;;;;;;;17.77;6.80;;;;;;;;;;5048160;28;20017;-67
2022/11/28 09:18:11;;;;;;;18.75;7.32;;;;;;;;;;5046691;28;20028;-68
2022/11/28 09:20:38;;;;;;;19.10;7.15;;;;;;;;;;5047859;28;20025;-67
2022/11/28 09:23:03;;;;;;;18.65;6.90;;;;;;;;;;5047580;28;20024;-68
2022/11/28 09:25:28;;;;;;;17.50;8.57;;;;;;;;;;5048154;28;20021;-67
2022/11/28 09:27:53;;;;;;;23.50;8.70;;;;;;;;;;5047528;28;20049;-67
2022/11/28 09:30:21;;;;;;;20.63;7.18;;;;;;;;;;5055576;28;20028;-67
2022/11/28 09:32:49;;;;;;;18.70;8.13;;;;;;;;;;5053102;28;20009;-67
2022/11/28 09:35:15;;;;;;;28.52;9.38;;;;;;;;;;5048447;28;20024;-67
2022/11/28 09:37:40;;;;;;;23.10;8.45;;;;;;;;;;5051789;28;20155;-68
2022/11/28 09:40:06;;;;;;;32.33;9.13;;;;;;;;;;5059900;28;20189;-66
2022/11/28 09:42:37;;;;;;;22.08;9.38;;;;;;;;;;5057208;28;20043;-67
2022/11/28 09:45:11;;;;;;;33.47;10.77;;;;;;;;;;5051868;28;20115;-67
2022/11/28 09:47:38;;;;;;;33.88;10.55;;;;;;;;;;5052572;28;20027;-66
2022/11/28 09:50:15;;;;;;;33.53;9.90;;;;;;;;;;5050429;28;20095;-68
2022/11/28 09:52:40;;;;;;;21.02;8.38;;;;;;;;;;5052811;28;20083;-67
2022/11/28 09:55:06;;;;;;;21.40;8.93;;;;;;;;;;5051620;28;20029;-67
2022/11/28 09:57:34;;;;;;;24.48;8.57;;;;;;;;;;5057585;28;20078;-66
2022/11/28 10:00:00;;;;;;;26.60;9.32;;;;;;;;;;5057169;28;20025;-66
2022/11/28 10:02:28;;;;;;;26.65;9.27;;;;;;;;;;5064543;28;20104;-68
2022/11/28 10:05:00;;;;;;;27.67;10.15;;;;;;;;;;5062568;28;20025;-69
2022/11/28 10:07:37;;;;;;;23.10;9.27;;;;;;;;;;5039458;28;20024;-66
2022/11/28 10:10:16;;;;;;;28.05;10.32;;;;;;;;;;5051502;28;20021;-69
2022/11/28 10:12:41;;;;;;;;;;;;;;;;;;5061949;28;20470;-68
2022/11/28 10:15:06;;;;;;;20.60;8.05;;;;;;;;;;5057877;28;20529;-68
2022/11/28 10:17:41;;;;;;;20.05;8.20;;;;;;;;;;5061379;28;20020;-67
2022/11/28 10:20:23;;;;;;;20.73;8.32;;;;;;;;;;5064719;28;20021;-68
2022/11/28 10:22:56;;;;;;;25.98;9.00;;;;;;;;;;5050404;28;20017;-65
2022/11/28 10:25:37;;;;;;;21.90;8.35;;;;;;;;;;5063238;28;20052;-67
2022/11/28 10:28:05;;;;;;;17.13;7.88;;;;;;;;;;5050027;28;20134;-68
2022/11/28 10:30:32;;;;;;;21.80;7.78;;;;;;;;;;5060879;28;20029;-67
2022/11/28 10:32:57;;;;;;;22.00;8.68;;;;;;;;;;5070410;28;20049;-69
2022/11/28 10:35:45;;;;;;;22.90;8.35;;;;;;;;;;5069333;28;20063;-68
2022/11/28 10:38:11;;;;;;;19.42;8.40;;;;;;;;;;5068637;28;20071;-68
2022/11/28 10:40:37;;;;;;;30.20;9.23;;;;;;;;;;5061924;28;20028;-69
2022/11/28 10:43:09;;;;;;;25.45;10.13;;;;;;;;;;5070598;28;20024;-67
2022/11/28 10:45:43;;;;;;;20.35;8.55;;;;;;;;;;5060001;28;20147;-69
2022/11/28 10:48:32;;;;;;;22.75;9.43;;;;;;;;;;5064536;28;20092;-68
2022/11/28 10:50:57;;;;;;;18.45;8.27;;;;;;;;;;5026771;28;20402;-65
2022/11/28 10:53:28;;;;;;;17.67;8.38;;;;;;;;;;5058429;28;20507;-68
2022/11/28 10:55:59;;;;;;;22.50;8.90;;;;;;;;;;5052532;28;20398;-68
2022/11/28 10:58:27;;;;;;;23.77;7.72;;;;;;;;;;5050922;28;20021;-68
2022/11/28 11:00:53;;;;;;;21.50;9.05;;;;;;;;;;5050161;28;20100;-68
2022/11/28 11:03:21;;;;;;;26.17;7.65;;;;;;;;;;5063456;28;20036;-66
2022/11/28 11:05:46;;;;;;;23.42;8.60;;;;;;;;;;5051495;28;20040;-70
2022/11/28 11:08:19;;;;;;;21.58;10.02;;;;;;;;;;5051431;28;20379;-67
2022/11/28 11:10:49;;;;;;;20.17;8.20;;;;;;;;;;5038495;28;20062;-67
2022/11/28 11:13:16;;;;;;;24.25;8.63;;;;;;;;;;5044212;28;20025;-67
2022/11/28 11:15:41;;;;;;;26.83;8.75;;;;;;;;;;5058672;28;20028;-66
2022/11/28 11:18:23;;;;;;;33.25;9.23;;;;;;;;;;5055479;28;20078;-68
2022/11/28 11:20:49;;;;;;;27.92;9.10;;;;;;;;;;5050567;28;20021;-68
2022/11/28 11:23:19;;;;;;;24.88;9.23;;;;;;;;;;5050232;28;20367;-67
2022/11/28 11:25:52;;;;;;;17.63;8.30;;;;;;;;;;5061485;28;20021;-67
2022/11/28 11:28:31;;;;;;;26.50;8.45;;;;;;;;;;5051976;28;20489;-69
2022/11/28 11:30:58;;;;;;;29.65;7.93;;;;;;;;;;5062864;28;20069;-66
2022/11/28 11:33:31;;;;;;;21.88;7.85;;;;;;;;;;5056558;28;20115;-67
2022/11/28 11:35:56;;;;;;;25.17;8.57;;;;;;;;;;5055854;28;20035;-67
2022/11/28 11:38:22;;;;;;;25.52;10.20;;;;;;;;;;5055388;28;20070;-67
2022/11/28 11:40:48;;;;;;;33.50;8.98;;;;;;;;;;5056019;28;20544;-67
2022/11/28 11:43:23;;;;;;;18.15;8.38;;;;;;;;;;5049299;28;20028;-67
2022/11/28 11:46:02;;;;;;;30.00;8.77;;;;;;;;;;5050139;28;20108;-67
2022/11/28 11:48:28;;;;;;;;;;;;;;;;;;5048330;28;20017;-65
2022/11/28 11:50:53;;;;;;;17.00;7.88;;;;;;;;;;5064979;28;19927;-66
2022/11/28 11:53:18;;;;;;;21.88;8.65;;;;;;;;;;5049638;28;20044;-65
2022/11/28 11:55:46;;;;;;;22.33;8.43;;;;;;;;;;5053676;28;20386;-66
2022/11/28 11:58:15;;;;;;;22.45;8.15;;;;;;;;;;5057286;28;20487;-66
2022/11/28 12:00:41;;;;;;;23.67;8.80;;;;;;;;;;5049308;28;20077;-65
2022/11/28 12:03:13;;;;;;;26.95;7.97;;;;;;;;;;5049066;28;20053;-68
2022/11/28 12:05:51;;;;;;;19.13;7.80;;;;;;;;;;5064736;28;20021;-65
2022/11/28 12:08:23;;;;;;;22.95;8.93;;;;;;;;;;5055074;28;20028;-65
2022/11/28 12:11:01;;;;;;;18.98;8.32;;;;;;;;;;5050025;28;20013;-67
2022/11/28 12:13:26;;;;;;;21.45;7.90;;;;;;;;;;5052174;28;20481;-67
2022/11/28 12:15:51;;;;;;;19.65;7.82;;;;;;;;;;5060328;28;20019;-69
2022/11/28 12:18:23;;;;;;;20.27;8.60;;;;;;;;;;5048993;28;20025;-66
2022/11/28 12:20:53;;;;;;;18.25;7.15;;;;;;;;;;5059227;28;20257;-68
2022/11/28 12:23:19;;;;;;;21.48;8.65;;;;;;;;;;5054993;28;20108;-67
2022/11/28 12:25:49;;;;;;;19.52;8.65;;;;;;;;;;5049890;28;20404;-67
2022/11/28 12:28:23;;;;;;;20.67;8.30;;;;;;;;;;5047459;28;20093;-67
2022/11/28 12:30:56;;;;;;;26.65;7.82;;;;;;;;;;5048856;28;20533;-69
2022/11/28 12:33:35;;;;;;;18.88;7.68;;;;;;;;;;5054912;28;20038;-66
2022/11/28 12:36:18;;;;;;;19.13;6.97;;;;;;;;;;5055232;28;20456;-67
2022/11/28 12:38:57;;;;;;;22.95;8.30;;;;;;;;;;5057873;28;20051;-65
2022/11/28 12:41:33;;;;;;;20.90;7.80;;;;;;;;;;5048545;28;20032;-68
2022/11/28 12:44:13;;;;;;;20.60;8.43;;;;;;;;;;5049781;28;20037;-66
2022/11/28 12:46:41;;;;;;;23.25;8.18;;;;;;;;;;5046398;28;20028;-66
2022/11/28 12:49:23;;;;;;;29.13;9.17;;;;;;;;;;5053271;28;20032;-67
2022/11/28 12:51:48;;;;;;;22.30;8.27;;;;;;;;;;5048921;28;20254;-67
2022/11/28 12:54:39;;;;;;;20.40;7.80;;;;;;;;;;5047767;28;20159;-67
2022/11/28 12:57:04;;;;;;;21.33;9.07;;;;;;;;;;5049127;28;20195;-67
2022/11/28 12:59:49;;;;;;;23.17;8.93;;;;;;;;;;5060361;28;20100;-69
2022/11/28 13:02:33;;;;;;;19.98;7.45;;;;;;;;;;5062040;28;20021;-65
2022/11/28 13:05:01;;;;;;;20.15;7.40;;;;;;;;;;5047508;28;20012;-68
2022/11/28 13:07:50;;;;;;;17.80;7.60;;;;;;;;;;5043031;28;20087;-65
2022/11/28 13:10:15;;;;;;;;;;;;;;;;;;5045791;28;20021;-69
2022/11/28 13:12:56;;;;;;;21.38;7.68;;;;;;;;;;5052353;28;19912;-66
2022/11/28 13:15:36;;;;;;;15.35;7.32;;;;;;;;;;5047934;28;20013;-67
2022/11/28 13:18:20;;;;;;;19.02;8.32;;;;;;;;;;5048333;28;20487;-67
2022/11/28 13:21:05;;;;;;;18.00;7.38;;;;;;;;;;5058265;28;20031;-67
2022/11/28 13:23:37;;;;;;;18.30;6.93;;;;;;;;;;5060152;28;20064;-68
2022/11/28 13:26:02;;;;;;;19.45;7.05;;;;;;;;;;5048301;28;20414;-67
2022/11/28 13:28:49;;;;;;;27.20;8.32;;;;;;;;;;5047788;28;20032;-67
2022/11/28 13:31:27;;;;;;;18.25;7.55;;;;;;;;;;5050496;28;20028;-66
2022/11/28 13:33:56;;;;;;;29.02;8.95;;;;;;;;;;5053990;28;20025;-68
2022/11/28 13:36:40;;;;;;;17.15;6.78;;;;;;;;;;5052641;28;20021;-69
2022/11/28 13:39:14;;;;;;;19.00;7.80;;;;;;;;;;5054782;28;20036;-67
2022/11/28 13:41:50;;;;;;;17.00;6.88;;;;;;;;;;5059534;28;20021;-67
2022/11/28 13:44:31;;;;;;;16.85;6.13;;;;;;;;;;5061294;28;20070;-68
2022/11/28 13:46:56;;;;;;;20.25;6.70;;;;;;;;;;5041817;28;20021;-66
2022/11/28 13:49:23;;;;;;;17.40;7.15;;;;;;;;;;5052337;28;20082;-65
2022/11/28 13:52:08;;;;;;;15.82;6.70;;;;;;;;;;5047105;28;20042;-67
2022/11/28 13:54:40;;;;;;;19.80;6.53;;;;;;;;;;5035530;28;20522;-69
2022/11/28 13:57:18;;;;;;;23.42;7.15;;;;;;;;;;5048115;28;20386;-67
2022/11/28 13:59:47;;;;;;;20.60;6.68;;;;;;;;;;5046564;28;20490;-67
2022/11/28 14:02:28;;;;;;;11.85;5.80;;;;;;;;;;5048478;28;20147;-70
2022/11/28 14:04:53;;;;;;;19.63;6.47;;;;;;;;;;5047215;28;20070;-67
2022/11/28 14:07:20;;;;;;;24.48;7.00;;;;;;;;;;5060970;28;20140;-68
2022/11/28 14:09:46;;;;;;;18.38;7.50;;;;;;;;;;5062911;28;20058;-68
2022/11/28 14:12:26;;;;;;;17.38;6.97;;;;;;;;;;5049437;28;20133;-66
2022/11/28 14:15:10;;;;;;;20.23;6.05;;;;;;;;;;5047738;28;20479;-67
2022/11/28 14:17:41;;;;;;;13.90;5.85;;;;;;;;;;5047222;28;20024;-65
2022/11/28 14:20:16;;;;;;;15.18;6.47;;;;;;;;;;5047630;28;20029;-68
2022/11/28 14:22:47;;;;;;;16.77;7.20;;;;;;;;;;5061946;28;20017;-68
2022/11/28 14:25:12;;;;;;;15.30;6.45;;;;;;;;;;5057376;28;20082;-66
2022/11/28 14:27:39;;;;;;;12.18;6.25;;;;;;;;;;5058572;28;20467;-69
2022/11/28 14:30:05;;;;;;;18.88;7.85;;;;;;;;;;5050768;28;20021;-66
2022/11/28 14:32:35;;;;;;;13.82;6.57;;;;;;;;;;5050795;28;20091;-69
2022/11/28 14:35:00;;;;;;;12.57;5.75;;;;;;;;;;5064484;28;20028;-68
2022/11/28 14:37:27;;;;;;;20.50;6.68;;;;;;;;;;5049917;28;20437;-67
2022/11/28 14:39:53;;;;;;;19.52;6.85;;;;;;;;;;5056594;28;20035;-67